Time;durP1;ratioP1;P1;durP2;ratioP2;P2;SDS_P1;SDS_P2;PMS_P1;PMS_P2;Temp;Humidity;BMP_temperature;BMP_pressure;BME280_temperature;BME280_humidity;BME280_pressure;Samples;Min_cycle;Max_cycle;Signal;HPM_P1;HPM_P2
2023/10/25 00:01:52;;;;;;;;;;;;;;;11.43;100.00;100097.66;5311405;28;20027;-72
2023/10/25 00:04:23;;;;;;;7.75;3.20;;;;;;;10.78;100.00;100101.56;5312583;28;20377;-72
2023/10/25 00:06:55;;;;;;;6.70;3.70;;;;;;;10.70;100.00;100094.47;5313780;28;20228;-72
2023/10/25 00:09:27;;;;;;;6.70;4.28;;;;;;;10.71;100.00;100098.72;5310417;28;20033;-72
2023/10/25 00:11:59;;;;;;;8.93;3.65;;;;;;;10.66;100.00;100095.75;5313664;28;20028;-73
2023/10/25 00:14:31;;;;;;;7.80;4.18;;;;;;;10.64;100.00;100087.19;5311580;28;20122;-72
2023/10/25 00:17:03;;;;;;;10.05;4.22;;;;;;;10.62;100.00;100083.91;5311614;28;20121;-73
2023/10/25 00:19:35;;;;;;;9.45;4.05;;;;;;;10.52;100.00;100070.88;5313633;28;20042;-72
2023/10/25 00:22:07;;;;;;;7.60;4.10;;;;;;;10.55;100.00;100077.63;5313918;28;20032;-73
2023/10/25 00:24:38;;;;;;;7.65;4.60;;;;;;;10.50;100.00;100074.63;5311156;28;20429;-72
2023/10/25 00:27:10;;;;;;;9.77;4.38;;;;;;;10.51;100.00;100081.50;5308998;28;20460;-73
2023/10/25 00:29:42;;;;;;;11.70;4.40;;;;;;;10.50;100.00;100078.06;5328955;28;20416;-73
2023/10/25 00:32:14;;;;;;;9.65;4.47;;;;;;;10.47;100.00;100081.78;5334642;28;20041;-72
2023/10/25 00:34:46;;;;;;;7.75;4.55;;;;;;;10.43;100.00;100077.00;5336252;28;20027;-73
2023/10/25 00:37:18;;;;;;;9.00;4.22;;;;;;;10.41;100.00;100092.03;5333875;27;20100;-72
2023/10/25 00:39:50;;;;;;;11.73;3.95;;;;;;;10.39;100.00;100084.34;5315871;27;20130;-73
2023/10/25 00:42:22;;;;;;;8.57;4.30;;;;;;;10.33;100.00;100065.75;5338602;27;20117;-72
2023/10/25 00:44:54;;;;;;;7.20;3.42;;;;;;;10.35;100.00;100079.53;5337781;27;20031;-73
2023/10/25 00:47:26;;;;;;;10.05;3.70;;;;;;;10.35;100.00;100080.38;5336662;27;20122;-73
2023/10/25 00:49:58;;;;;;;5.75;3.28;;;;;;;10.39;100.00;100084.34;5339711;27;20038;-72
2023/10/25 00:52:30;;;;;;;7.97;3.77;;;;;;;10.39;100.00;100089.56;5338341;27;20034;-72
2023/10/25 00:55:03;;;;;;;8.35;3.10;;;;;;;10.28;100.00;100083.72;5338770;27;20039;-72
2023/10/25 00:57:35;;;;;;;6.07;3.15;;;;;;;10.30;100.00;100074.72;5336446;27;20023;-72
2023/10/25 01:00:08;;;;;;;6.90;3.35;;;;;;;10.31;100.00;100079.00;5339261;27;20023;-73
2023/10/25 01:02:40;;;;;;;6.80;3.03;;;;;;;10.30;100.00;100064.25;5335739;27;20400;-72
2023/10/25 01:05:13;;;;;;;5.82;3.05;;;;;;;10.28;100.00;100070.63;5337574;27;20038;-72
2023/10/25 01:07:45;;;;;;;6.10;3.25;;;;;;;10.28;100.00;100060.97;5335528;27;20026;-72
2023/10/25 01:10:17;;;;;;;6.25;2.80;;;;;;;10.21;100.00;100063.31;5339143;27;20459;-72
2023/10/25 01:12:49;;;;;;;6.45;2.83;;;;;;;10.21;100.00;100068.56;5338915;27;20035;-73
2023/10/25 01:15:22;;;;;;;8.25;3.90;;;;;;;10.19;100.00;100059.19;5336972;27;20041;-72
2023/10/25 01:17:54;;;;;;;9.35;2.80;;;;;;;10.22;100.00;100059.72;5336707;27;20043;-73
2023/10/25 01:20:26;;;;;;;6.47;2.42;;;;;;;10.20;100.00;100063.47;5336510;27;20053;-72
2023/10/25 01:22:58;;;;;;;6.00;2.58;;;;;;;10.19;100.00;100054.81;5333897;27;20038;-72
2023/10/25 01:25:30;;;;;;;5.95;2.67;;;;;;;10.23;100.00;100058.78;5332805;27;20483;-73
2023/10/25 01:28:02;;;;;;;5.78;2.40;;;;;;;10.20;100.00;100039.91;5337481;27;20035;-72
2023/10/25 01:30:34;;;;;;;6.68;2.58;;;;;;;10.20;100.00;100042.53;5338206;27;20027;-72
2023/10/25 01:33:07;;;;;;;9.13;2.90;;;;;;;10.18;100.00;100034.00;5337306;27;20043;-72
2023/10/25 01:35:39;;;;;;;6.15;2.80;;;;;;;10.18;100.00;100024.34;5336517;27;20472;-72
2023/10/25 01:38:11;;;;;;;8.38;2.70;;;;;;;10.18;100.00;100021.72;5337380;27;20031;-72
2023/10/25 01:40:43;;;;;;;6.00;2.47;;;;;;;10.17;100.00;100014.84;5337770;27;20025;-72
2023/10/25 01:43:15;;;;;;;5.63;2.55;;;;;;;10.16;100.00;100015.84;5336970;27;20038;-73
2023/10/25 01:45:47;;;;;;;8.55;2.95;;;;;;;10.19;100.00;100012.06;5316111;27;20043;-71
2023/10/25 01:48:19;;;;;;;5.88;2.45;;;;;;;10.16;100.00;100010.59;5336154;27;20023;-72
2023/10/25 01:50:53;;;;;;;6.57;2.88;;;;;;;10.26;100.00;100007.09;5304680;27;20492;-72
2023/10/25 01:53:25;;;;;;;5.13;2.58;;;;;;;10.18;100.00;100007.81;5336994;27;20035;-72
2023/10/25 01:55:57;;;;;;;5.43;2.72;;;;;;;10.18;100.00;100008.63;5335330;27;20034;-72
2023/10/25 01:58:29;;;;;;;6.10;2.20;;;;;;;10.20;100.00;100004.09;5335053;27;20072;-72
2023/10/25 02:01:06;;;;;;;6.80;2.60;;;;;;;10.35;100.00;99999.19;5333397;27;20038;-72
2023/10/25 02:03:38;;;;;;;7.72;2.55;;;;;;;10.27;100.00;99991.28;5315028;27;20039;-72
2023/10/25 02:06:16;;;;;;;6.47;2.33;;;;;;;10.45;100.00;99999.09;5335396;27;20037;-72
2023/10/25 02:08:47;;;;;;;5.35;2.15;;;;;;;10.32;100.00;99994.25;5338545;27;20042;-72
2023/10/25 02:11:20;;;;;;;5.30;1.98;;;;;;;10.33;100.00;99995.91;5338678;27;20027;-72
2023/10/25 02:13:52;;;;;;;4.73;2.30;;;;;;;10.40;100.00;99991.72;5336245;27;20038;-72
2023/10/25 02:16:24;;;;;;;5.00;2.38;;;;;;;10.36;100.00;99990.38;5336416;27;20849;-72
2023/10/25 02:18:55;;;;;;;3.55;1.95;;;;;;;10.36;100.00;99985.13;5325943;27;20473;-72
2023/10/25 02:21:27;;;;;;;6.75;1.88;;;;;;;10.36;100.00;99979.91;5335501;27;20447;-72
2023/10/25 02:23:59;;;;;;;6.78;2.28;;;;;;;10.40;100.00;99978.63;5338203;27;20391;-72
2023/10/25 02:26:32;;;;;;;4.93;2.10;;;;;;;10.36;100.00;99973.84;5337014;27;20022;-74
2023/10/25 02:29:03;;;;;;;7.73;1.83;;;;;;;10.41;100.00;99966.34;5334134;27;20046;-72
2023/10/25 02:31:36;;;;;;;4.50;2.50;;;;;;;10.42;100.00;99973.25;5334373;27;20292;-73
2023/10/25 02:34:08;;;;;;;6.68;2.10;;;;;;;10.41;100.00;99955.88;5334408;27;20028;-72
2023/10/25 02:36:40;;;;;;;5.80;1.65;;;;;;;10.44;100.00;99959.00;5336212;27;20373;-73
2023/10/25 02:39:12;;;;;;;6.75;1.98;;;;;;;10.42;100.00;99949.69;5337049;27;20106;-72
2023/10/25 02:41:44;;;;;;;6.18;1.88;;;;;;;10.47;100.00;99950.84;5335211;27;20027;-72
2023/10/25 02:44:16;;;;;;;7.45;2.00;;;;;;;10.50;100.00;99941.88;5335245;27;20121;-73
2023/10/25 02:46:48;;;;;;;4.93;1.92;;;;;;;10.45;100.00;99938.88;5317187;27;20053;-72
2023/10/25 02:49:19;;;;;;;5.07;1.90;;;;;;;10.49;100.00;99945.47;5335359;27;20477;-72
2023/10/25 02:51:51;;;;;;;6.25;1.77;;;;;;;10.49;100.00;99934.97;5334358;27;20047;-73
2023/10/25 02:54:23;;;;;;;6.63;2.13;;;;;;;10.47;100.00;99929.09;5336375;27;20039;-72
2023/10/25 02:56:56;;;;;;;5.10;2.10;;;;;;;10.52;100.00;99931.25;5336252;27;20039;-72
2023/10/25 02:59:27;;;;;;;4.15;1.80;;;;;;;10.54;100.00;99927.50;5317835;27;20035;-72
2023/10/25 03:01:59;;;;;;;4.57;1.88;;;;;;;10.50;100.00;99918.31;5335729;27;20373;-72
2023/10/25 03:04:31;;;;;;;3.78;1.50;;;;;;;10.56;100.00;99919.50;5335925;27;20037;-72
2023/10/25 03:07:03;;;;;;;6.20;2.00;;;;;;;10.54;100.00;99911.81;5335544;27;20031;-72
2023/10/25 03:09:35;;;;;;;6.65;2.40;;;;;;;10.57;100.00;99901.03;5336602;27;20023;-73
2023/10/25 03:12:07;;;;;;;6.22;1.80;;;;;;;10.60;100.00;99903.31;5334463;27;20034;-72
2023/10/25 03:14:39;;;;;;;4.20;1.90;;;;;;;10.62;100.00;99901.38;5297348;28;20428;-73
2023/10/25 03:17:11;;;;;;;5.63;1.80;;;;;;;10.65;100.00;99900.25;5311158;28;20038;-73
2023/10/25 03:19:43;;;;;;;4.75;2.05;;;;;;;10.68;100.00;99898.16;5312133;28;20039;-72
2023/10/25 03:22:14;;;;;;;5.25;2.00;;;;;;;10.71;100.00;99899.63;5315425;28;20026;-73
2023/10/25 03:24:46;;;;;;;4.55;2.10;;;;;;;10.70;100.00;99888.31;5314398;28;20736;-72
2023/10/25 03:27:18;;;;;;;4.00;1.70;;;;;;;10.74;100.00;99893.25;5311808;28;20584;-72
2023/10/25 03:29:50;;;;;;;6.13;1.95;;;;;;;10.75;100.00;99887.03;5312041;28;20511;-72
2023/10/25 03:32:22;;;;;;;3.90;1.75;;;;;;;10.74;100.00;99891.47;5313424;27;20477;-72
2023/10/25 03:34:54;;;;;;;5.72;2.30;;;;;;;10.75;100.00;99885.25;5310774;28;20469;-72
2023/10/25 03:37:26;;;;;;;3.80;1.80;;;;;;;10.75;100.00;99893.09;5311311;28;20403;-72
2023/10/25 03:39:58;;;;;;;7.18;1.98;;;;;;;10.77;100.00;99885.91;5313802;28;20038;-72
2023/10/25 03:42:29;;;;;;;5.40;1.60;;;;;;;10.77;100.00;99883.28;5304214;28;20035;-72
2023/10/25 03:45:02;;;;;;;4.97;2.15;;;;;;;10.77;100.00;99875.44;5314178;28;20465;-72
2023/10/25 03:47:40;;;;;;;4.20;2.10;;;;;;;10.82;100.00;99880.22;5307085;28;20036;-72
2023/10/25 03:50:11;;;;;;;8.13;2.28;;;;;;;10.80;100.00;99874.31;5312396;28;20024;-72
2023/10/25 03:52:43;;;;;;;6.82;2.90;;;;;;;10.79;100.00;99876.09;5307364;28;20054;-72
2023/10/25 03:55:15;;;;;;;6.63;2.20;;;;;;;10.81;100.00;99873.34;5309712;28;20035;-72
2023/10/25 03:57:47;;;;;;;5.65;1.90;;;;;;;10.78;100.00;99858.72;5311432;28;20039;-72
2023/10/25 04:00:19;;;;;;;6.55;2.17;;;;;;;10.81;100.00;99862.84;5311964;28;20036;-72
2023/10/25 04:02:51;;;;;;;7.32;2.22;;;;;;;10.81;100.00;99873.34;5311699;28;20062;-74
2023/10/25 04:05:23;;;;;;;4.45;1.85;;;;;;;10.82;100.00;99867.09;5314382;28;20485;-72
2023/10/25 04:07:55;;;;;;;8.80;2.05;;;;;;;10.83;100.00;99868.75;5311193;28;20403;-72
2023/10/25 04:10:28;;;;;;;7.05;1.92;;;;;;;10.88;100.00;99867.31;5327255;28;20031;-72
2023/10/25 04:13:00;;;;;;;5.60;1.90;;;;;;;10.86;100.00;99850.09;5334743;27;20031;-73
2023/10/25 04:15:35;;;;;;;5.07;2.10;;;;;;;10.88;100.00;99856.84;5339828;27;20527;-72
2023/10/25 04:18:09;;;;;;;5.25;2.40;;;;;;;10.86;100.00;99861.38;5337557;27;20023;-73
2023/10/25 04:20:41;;;;;;;6.50;2.17;;;;;;;10.90;100.00;99857.47;5339905;27;20042;-72
2023/10/25 04:23:13;;;;;;;5.15;2.20;;;;;;;10.89;100.00;99861.09;5337409;27;20023;-72
2023/10/25 04:25:45;;;;;;;7.85;1.95;;;;;;;10.90;100.00;99861.91;5337942;27;20027;-72
2023/10/25 04:28:18;;;;;;;7.05;2.38;;;;;;;10.92;100.00;99858.16;5338559;27;20023;-72
2023/10/25 04:30:50;;;;;;;5.70;2.38;;;;;;;10.95;100.00;99854.41;5338913;27;20027;-73
2023/10/25 04:33:22;;;;;;;6.10;2.15;;;;;;;10.95;100.00;99849.19;5338869;27;20130;-72
2023/10/25 04:35:55;;;;;;;6.13;2.40;;;;;;;10.95;100.00;99846.56;5334321;27;20046;-72
2023/10/25 04:38:27;;;;;;;5.97;2.40;;;;;;;10.96;100.00;99846.38;5331820;27;20019;-74
2023/10/25 04:40:59;;;;;;;4.75;2.40;;;;;;;10.95;100.00;99844.75;5316570;27;20121;-72
2023/10/25 04:43:31;;;;;;;4.88;2.45;;;;;;;10.98;100.00;99842.78;5338044;27;20027;-72
2023/10/25 04:46:03;;;;;;;5.70;2.90;;;;;;;11.00;100.00;99831.16;5337718;27;20023;-72
2023/10/25 04:48:35;;;;;;;4.93;2.40;;;;;;;11.00;100.00;99831.16;5336465;27;20523;-72
2023/10/25 04:51:12;;;;;;;6.43;2.55;;;;;;;11.07;100.00;99826.94;5339885;27;20110;-74
2023/10/25 04:53:46;;;;;;;8.63;3.00;;;;;;;11.03;100.00;99819.56;5339180;27;20031;-72
2023/10/25 04:56:26;;;;;;;;;;;;;;;11.74;100.00;99818.22;5339363;27;20465;-73
2023/10/25 04:58:58;;;;;;;6.20;2.60;;;;;;;11.06;100.00;99814.81;5339559;27;19919;-73
2023/10/25 05:01:30;;;;;;;9.90;2.83;;;;;;;11.02;100.00;99802.16;5339703;27;20375;-73
2023/10/25 05:04:02;;;;;;;9.40;2.30;;;;;;;11.03;100.00;99802.03;5335056;27;20031;-73
2023/10/25 05:06:34;;;;;;;5.80;2.50;;;;;;;11.01;100.00;99796.09;5315267;28;20019;-74
2023/10/25 05:09:06;;;;;;;3.97;2.08;;;;;;;11.03;100.00;99799.41;5315348;27;20050;-74
2023/10/25 05:11:41;;;;;;;5.88;2.80;;;;;;;11.08;100.00;99801.53;5315388;28;20367;-72
2023/10/25 05:14:13;;;;;;;6.00;2.70;;;;;;;11.07;100.00;99797.28;5317252;28;20038;-72
2023/10/25 05:16:45;;;;;;;7.10;3.20;;;;;;;11.06;100.00;99790.38;5317968;28;20741;-71
2023/10/25 05:19:17;;;;;;;7.20;2.50;;;;;;;11.09;100.00;99784.84;5314943;28;20436;-71
2023/10/25 05:21:51;;;;;;;6.50;2.53;;;;;;;11.08;100.00;99786.63;5315530;28;20058;-73
2023/10/25 05:24:23;;;;;;;6.30;2.72;;;;;;;11.04;100.00;99771.41;5312991;28;20035;-73
2023/10/25 05:26:55;;;;;;;7.00;2.50;;;;;;;11.07;100.00;99771.06;5314473;28;20035;-72
2023/10/25 05:29:27;;;;;;;10.85;3.15;;;;;;;11.06;100.00;99769.41;5313711;28;20031;-73
2023/10/25 05:32:03;;;;;;;5.97;2.35;;;;;;;11.07;100.00;99777.13;5317720;27;20050;-73
2023/10/25 05:34:35;;;;;;;7.22;2.80;;;;;;;11.09;100.00;99772.53;5336471;27;20452;-72
2023/10/25 05:37:07;;;;;;;8.63;2.85;;;;;;;11.10;100.00;99761.09;5332093;27;20027;-73
2023/10/25 05:39:39;;;;;;;7.00;2.40;;;;;;;11.13;100.00;99763.38;5337477;27;20381;-73
2023/10/25 05:42:17;;;;;;;5.80;2.10;;;;;;;11.23;100.00;99758.00;5338983;27;20027;-73
2023/10/25 05:44:53;;;;;;;4.85;2.10;;;;;;;11.14;100.00;99756.34;5333935;27;20028;-74
2023/10/25 05:47:26;;;;;;;7.05;2.53;;;;;;;11.15;100.00;99760.63;5336513;27;20444;-72
2023/10/25 05:49:58;;;;;;;5.88;2.38;;;;;;;11.16;100.00;99741.28;5339978;27;20039;-74
2023/10/25 05:52:30;;;;;;;8.63;3.08;;;;;;;11.16;100.00;99762.25;5337917;27;20043;-73
2023/10/25 05:55:02;;;;;;;5.13;2.60;;;;;;;11.15;100.00;99752.75;5335975;27;20034;-72
2023/10/25 05:57:35;;;;;;;6.28;2.50;;;;;;;11.22;100.00;99740.63;5337100;27;20038;-72
2023/10/25 06:00:07;;;;;;;6.22;2.40;;;;;;;11.16;100.00;99744.72;5333381;27;20050;-73
2023/10/25 06:02:39;;;;;;;5.68;2.40;;;;;;;11.16;100.00;99736.03;5305423;28;20050;-72
2023/10/25 06:05:13;;;;;;;5.05;2.55;;;;;;;11.21;100.00;99749.47;5335910;27;20023;-72
2023/10/25 06:07:45;;;;;;;;;;;;;;;11.86;100.00;99743.50;5336858;27;20037;-72
2023/10/25 06:10:17;;;;;;;5.95;2.50;;;;;;;11.26;100.00;99733.28;5336377;27;20364;-72
2023/10/25 06:12:49;;;;;;;4.90;2.20;;;;;;;11.27;100.00;99743.59;5336216;27;20031;-72
2023/10/25 06:15:21;;;;;;;6.85;2.38;;;;;;;11.22;100.00;99731.97;5317375;27;20649;-73
2023/10/25 06:17:53;;;;;;;5.30;2.50;;;;;;;11.26;100.00;99735.91;5336349;27;20118;-72
2023/10/25 06:20:25;;;;;;;6.30;2.53;;;;;;;11.28;100.00;99726.06;5334501;27;20026;-72
2023/10/25 06:22:57;;;;;;;5.38;2.40;;;;;;;11.26;100.00;99723.59;5336274;27;20046;-73
2023/10/25 06:25:30;;;;;;;6.70;2.42;;;;;;;11.26;100.00;99718.34;5338714;27;20114;-72
2023/10/25 06:28:02;;;;;;;9.35;2.47;;;;;;;11.30;100.00;99717.06;5329098;27;20028;-72
2023/10/25 06:30:34;;;;;;;3.90;2.15;;;;;;;11.31;100.00;99710.00;5334131;27;20469;-72
2023/10/25 06:33:06;;;;;;;5.82;2.55;;;;;;;11.31;100.00;99704.75;5336363;27;20024;-72
2023/10/25 06:35:38;;;;;;;9.15;2.83;;;;;;;11.34;100.00;99702.63;5333091;27;20032;-72
2023/10/25 06:38:10;;;;;;;4.15;1.80;;;;;;;11.35;100.00;99699.00;5335323;27;20038;-72
2023/10/25 06:40:43;;;;;;;4.90;1.70;;;;;;;11.35;100.00;99693.78;5334178;27;20046;-72
2023/10/25 06:43:15;;;;;;;4.25;2.08;;;;;;;11.40;100.00;99702.00;5332089;27;20027;-72
2023/10/25 06:45:47;;;;;;;9.00;2.40;;;;;;;11.39;100.00;99699.50;5337763;27;20395;-72
2023/10/25 06:48:19;;;;;;;6.18;2.03;;;;;;;11.36;100.00;99682.28;5338245;27;20038;-72
2023/10/25 06:50:51;;;;;;;8.10;2.35;;;;;;;11.40;100.00;99680.16;5335950;27;20041;-72
2023/10/25 06:53:23;;;;;;;4.97;1.90;;;;;;;11.41;100.00;99679.19;5336081;27;20027;-72
2023/10/25 06:55:55;;;;;;;5.28;1.90;;;;;;;11.44;100.00;99671.00;5338128;27;20039;-72
2023/10/25 06:58:27;;;;;;;5.25;1.95;;;;;;;11.51;100.00;99668.53;5335351;27;20460;-73
2023/10/25 07:01:01;;;;;;;4.55;2.00;;;;;;;11.55;100.00;99668.03;5337514;27;20031;-72
2023/10/25 07:03:35;;;;;;;6.15;1.80;;;;;;;11.51;100.00;99660.66;5337934;27;20027;-73
2023/10/25 07:06:07;;;;;;;8.00;2.15;;;;;;;11.50;100.00;99661.66;5333111;27;20031;-72
2023/10/25 07:08:41;;;;;;;8.33;2.20;;;;;;;11.54;100.00;99653.28;5338102;27;20033;-72
2023/10/25 07:11:12;;;;;;;5.13;1.70;;;;;;;11.57;100.00;99654.75;5336275;27;20281;-72
2023/10/25 07:13:44;;;;;;;4.45;2.38;;;;;;;11.56;100.00;99650.50;5315298;27;20047;-72
2023/10/25 07:16:16;;;;;;;5.13;1.90;;;;;;;11.57;100.00;99641.66;5334130;27;20105;-72
2023/10/25 07:18:49;;;;;;;6.75;1.60;;;;;;;11.61;100.00;99648.19;5337024;27;20038;-73
2023/10/25 07:21:21;;;;;;;4.97;2.00;;;;;;;11.59;100.00;99651.00;5336593;27;20054;-72
2023/10/25 07:23:53;;;;;;;5.72;1.98;;;;;;;11.59;100.00;99645.75;5328246;27;20046;-72
2023/10/25 07:26:25;;;;;;;5.18;1.77;;;;;;;11.62;100.00;99644.59;5337319;27;20381;-72
2023/10/25 07:28:57;;;;;;;7.30;2.60;;;;;;;11.58;100.00;99646.72;5336679;27;20032;-72
2023/10/25 07:31:28;;;;;;;7.30;2.40;;;;;;;11.58;100.00;99651.97;5335245;27;20117;-72
2023/10/25 07:34:00;;;;;;;5.05;2.08;;;;;;;11.57;100.00;99636.41;5335922;27;20027;-72
2023/10/25 07:36:32;;;;;;;4.00;1.77;;;;;;;11.59;100.00;99637.03;5335853;27;20027;-72
2023/10/25 07:39:04;;;;;;;5.90;2.00;;;;;;;11.59;100.00;99635.25;5332985;27;20114;-73
2023/10/25 07:41:36;;;;;;;4.90;1.85;;;;;;;11.52;100.00;99615.94;5336263;27;20121;-73
2023/10/25 07:44:08;;;;;;;5.85;2.08;;;;;;;11.62;100.00;99619.16;5338573;27;20034;-73
2023/10/25 07:46:40;;;;;;;3.67;1.90;;;;;;;11.65;100.00;99615.41;5334679;27;20114;-75
2023/10/25 07:49:12;;;;;;;4.82;2.55;;;;;;;11.66;100.00;99615.22;5334821;27;20484;-73
2023/10/25 07:51:44;;;;;;;9.40;2.65;;;;;;;11.69;100.00;99608.81;5312002;28;20147;-73
2023/10/25 07:54:15;;;;;;;5.22;2.10;;;;;;;11.71;100.00;99599.00;5311505;28;20146;-73
2023/10/25 07:56:47;;;;;;;4.40;2.15;;;;;;;11.73;100.00;99593.56;5313767;28;20115;-73
2023/10/25 07:59:20;;;;;;;5.72;2.17;;;;;;;11.78;100.00;99588.63;5312682;28;20035;-73
2023/10/25 08:01:52;;;;;;;5.40;2.47;;;;;;;11.78;100.00;99586.00;5313294;28;20516;-72
2023/10/25 08:04:25;;;;;;;4.78;2.13;;;;;;;11.80;100.00;99576.16;5315150;28;20015;-73
2023/10/25 08:06:57;;;;;;;6.75;2.10;;;;;;;11.86;100.00;99584.22;5315066;28;20023;-73
2023/10/25 08:09:30;;;;;;;4.75;1.90;;;;;;;11.81;100.00;99576.00;5313522;28;20492;-73
2023/10/25 08:12:02;;;;;;;4.78;2.40;;;;;;;11.82;100.00;99575.03;5312559;28;20035;-73
2023/10/25 08:14:34;;;;;;;5.60;2.10;;;;;;;11.77;100.00;99569.44;5311448;28;20039;-73
2023/10/25 08:17:05;;;;;;;4.75;2.20;;;;;;;11.82;100.00;99569.78;5315072;28;20031;-73
2023/10/25 08:19:37;;;;;;;5.15;2.38;;;;;;;11.80;100.00;99561.25;5330431;27;20031;-73
2023/10/25 08:22:09;;;;;;;4.57;2.00;;;;;;;11.83;100.00;99563.56;5334344;28;20134;-73
2023/10/25 08:24:41;;;;;;;4.13;2.17;;;;;;;11.85;100.00;99558.94;5335519;28;20256;-73
2023/10/25 08:27:13;;;;;;;6.18;1.92;;;;;;;11.90;100.00;99556.66;5334853;28;20140;-73
2023/10/25 08:29:45;;;;;;;5.00;1.67;;;;;;;11.93;100.00;99551.06;5333746;28;20113;-72
2023/10/25 08:32:17;;;;;;;4.72;2.08;;;;;;;11.97;100.00;99553.34;5332024;28;20034;-72
2023/10/25 08:34:48;;;;;;;3.13;1.80;;;;;;;11.99;100.00;99548.75;5334248;28;20065;-73
2023/10/25 08:37:20;;;;;;;3.88;1.95;;;;;;;12.01;100.00;99537.09;5335175;28;20149;-72
2023/10/25 08:39:52;;;;;;;3.80;1.80;;;;;;;12.01;100.00;99525.75;5333505;28;20045;-73
2023/10/25 08:42:24;;;;;;;5.05;2.35;;;;;;;12.03;100.00;99521.97;5334024;28;20157;-72
2023/10/25 08:44:56;;;;;;;7.90;2.03;;;;;;;12.04;100.00;99515.72;5333794;28;20031;-73
2023/10/25 08:47:28;;;;;;;4.13;2.17;;;;;;;11.98;100.00;99497.25;5331668;28;20019;-73
2023/10/25 08:50:00;;;;;;;7.10;2.00;;;;;;;12.03;100.00;99519.34;5333571;28;20794;-73
2023/10/25 08:52:36;;;;;;;6.57;2.38;;;;;;;12.14;100.00;99518.97;5334008;28;20438;-73
2023/10/25 08:55:11;;;;;;;5.28;2.15;;;;;;;12.08;100.00;99513.56;5336137;28;20035;-73
2023/10/25 08:57:43;;;;;;;8.82;2.33;;;;;;;12.09;100.00;99502.91;5333315;28;20027;-73
2023/10/25 09:00:15;;;;;;;5.03;2.45;;;;;;;12.12;100.00;99496.47;5338445;27;20385;-73
2023/10/25 09:02:48;;;;;;;5.80;2.70;;;;;;;12.16;100.00;99492.56;5337975;27;20031;-73
2023/10/25 09:05:19;;;;;;;7.22;3.00;;;;;;;12.12;100.00;99493.84;5337898;27;20015;-73
2023/10/25 09:07:51;;;;;;;9.48;2.70;;;;;;;12.09;100.00;99489.78;5339212;27;20110;-73
2023/10/25 09:10:24;;;;;;;4.97;2.40;;;;;;;12.12;100.00;99483.34;5337531;27;20035;-73
2023/10/25 09:12:56;;;;;;;4.97;2.70;;;;;;;12.13;100.00;99488.44;5320486;27;20081;-73
2023/10/25 09:15:29;;;;;;;6.45;2.35;;;;;;;12.10;100.00;99488.78;5315927;28;20024;-73
2023/10/25 09:18:01;;;;;;;4.53;2.38;;;;;;;12.11;100.00;99489.59;5291829;28;20055;-73
2023/10/25 09:20:33;;;;;;;4.10;2.28;;;;;;;12.06;100.00;99487.50;5313862;28;20032;-73
2023/10/25 09:23:10;;;;;;;6.78;2.55;;;;;;;12.16;100.00;99484.69;5314510;28;20062;-73
2023/10/25 09:25:44;;;;;;;6.72;2.33;;;;;;;12.03;100.00;99482.59;5317059;28;20024;-73
2023/10/25 09:28:28;;;;;;;8.30;2.40;;;;;;;12.14;100.00;99486.66;5313139;28;20026;-73
2023/10/25 09:31:01;;;;;;;6.22;2.40;;;;;;;11.97;100.00;99478.06;5313142;28;20532;-72
2023/10/25 09:33:33;;;;;;;5.97;2.20;;;;;;;12.01;100.00;99478.50;5335686;27;20304;-72
2023/10/25 09:36:05;;;;;;;3.95;2.13;;;;;;;11.98;100.00;99468.38;5336659;27;20468;-72
2023/10/25 09:38:36;;;;;;;5.18;2.40;;;;;;;11.96;100.00;99454.59;5335889;27;20488;-73
2023/10/25 09:41:12;;;;;;;6.28;2.60;;;;;;;12.10;100.00;99448.59;5330166;27;20122;-73
2023/10/25 09:43:47;;;;;;;7.47;2.50;;;;;;;12.06;100.00;99437.63;5335709;27;20027;-73
2023/10/25 09:46:21;;;;;;;9.10;2.67;;;;;;;12.01;100.00;99437.34;5321107;27;20031;-73
2023/10/25 09:49:06;;;;;;;4.35;2.67;;;;;;;12.17;100.00;99431.16;5335959;27;20302;-73
2023/10/25 09:51:50;;;;;;;6.50;3.03;;;;;;;12.16;100.00;99432.97;5318788;27;20476;-73
2023/10/25 09:54:27;;;;;;;3.55;2.60;;;;;;;11.87;100.00;99427.59;5335957;27;20034;-73
2023/10/25 09:57:02;;;;;;;5.07;2.75;;;;;;;11.89;100.00;99422.97;5337643;27;20038;-72
2023/10/25 09:59:34;;;;;;;6.55;2.78;;;;;;;11.85;100.00;99411.19;5336248;27;20030;-72
2023/10/25 10:02:08;;;;;;;7.13;3.50;;;;;;;11.95;100.00;99414.41;5334978;27;20506;-73
2023/10/25 10:05:16;;;;;;;4.47;3.17;;;;;;;12.22;100.00;99407.81;5336544;27;20020;-72
2023/10/25 10:08:15;;;;;;;5.10;3.08;;;;;;;12.22;100.00;99402.56;5331122;27;20044;-73
2023/10/25 10:11:11;;;;;;;5.88;3.30;;;;;;;12.26;100.00;99400.41;5333616;27;20035;-73
2023/10/25 10:13:43;;;;;;;9.20;3.67;;;;;;;11.96;100.00;99391.59;5337678;27;20035;-73
2023/10/25 10:16:18;;;;;;;6.75;3.28;;;;;;;11.98;100.00;99389.63;5333995;27;20015;-72
2023/10/25 10:18:52;;;;;;;7.07;3.42;;;;;;;11.88;100.00;99385.41;5334040;27;20061;-72
2023/10/25 10:21:24;;;;;;;6.07;3.05;;;;;;;11.89;100.00;99375.72;5335004;27;20027;-73
2023/10/25 10:23:56;;;;;;;5.28;3.40;;;;;;;11.95;100.00;99374.22;5335158;27;20027;-73
2023/10/25 10:26:43;;;;;;;4.93;3.55;;;;;;;12.26;100.00;99358.38;5338862;27;20030;-73
2023/10/25 10:29:36;;;;;;;6.88;4.07;;;;;;;12.23;100.00;99351.69;5340140;27;20023;-73
2023/10/25 10:32:09;;;;;;;8.57;3.38;;;;;;;12.05;100.00;99351.19;5338472;27;20400;-73
2023/10/25 10:34:53;;;;;;;4.18;3.20;;;;;;;12.05;100.00;99346.75;5315142;27;20348;-73
2023/10/25 10:37:29;;;;;;;5.00;3.53;;;;;;;12.05;100.00;99340.69;5325704;27;20028;-73
2023/10/25 10:40:01;;;;;;;4.97;3.70;;;;;;;12.04;100.00;99331.16;5333242;27;20381;-73
2023/10/25 10:42:33;;;;;;;5.80;3.53;;;;;;;11.98;100.00;99332.69;5336505;27;20028;-73
2023/10/25 10:45:07;;;;;;;6.65;3.05;;;;;;;12.10;100.00;99319.97;5339216;27;20493;-73
2023/10/25 10:47:57;;;;;;;4.13;3.10;;;;;;;12.29;100.00;99327.34;5335754;27;20031;-73
2023/10/25 10:50:29;;;;;;;4.68;2.55;;;;;;;12.03;100.00;99313.78;5334813;27;20030;-73
2023/10/25 10:53:01;;;;;;;5.03;3.08;;;;;;;12.03;100.00;99311.97;5338796;27;20566;-73
2023/10/25 10:55:33;;;;;;;7.05;3.45;;;;;;;12.04;100.00;99295.22;5337642;27;20023;-73
2023/10/25 10:58:05;;;;;;;4.90;3.40;;;;;;;12.02;100.00;99284.09;5336891;27;20024;-72
2023/10/25 11:00:39;;;;;;;5.18;3.20;;;;;;;12.16;100.00;99287.78;5333004;27;20054;-72
2023/10/25 11:03:11;;;;;;;5.60;3.10;;;;;;;12.09;100.00;99278.97;5327522;27;20472;-72
2023/10/25 11:05:43;;;;;;;5.82;3.40;;;;;;;12.15;100.00;99280.88;5332406;27;20038;-72
2023/10/25 11:08:16;;;;;;;4.43;3.10;;;;;;;12.10;100.00;99277.97;5333716;27;20041;-73
2023/10/25 11:10:48;;;;;;;4.35;2.92;;;;;;;12.07;100.00;99270.44;5335763;27;20035;-73
2023/10/25 11:13:20;;;;;;;5.95;3.40;;;;;;;12.08;100.00;99264.19;5336072;27;20092;-72
2023/10/25 11:16:02;;;;;;;5.35;3.15;;;;;;;12.21;100.00;99256.53;5310729;27;20031;-73
2023/10/25 11:18:34;;;;;;;4.72;2.80;;;;;;;12.10;100.00;99252.53;5335973;27;20027;-73
2023/10/25 11:21:06;;;;;;;4.63;3.10;;;;;;;12.14;100.00;99253.81;5333483;27;20527;-73
2023/10/25 11:23:38;;;;;;;4.85;2.78;;;;;;;12.14;100.00;99248.56;5318211;27;20038;-72
2023/10/25 11:26:10;;;;;;;4.38;3.20;;;;;;;12.16;100.00;99240.50;5333981;27;20023;-72
2023/10/25 11:28:42;;;;;;;4.53;3.05;;;;;;;12.16;100.00;99235.25;5327620;27;20039;-72
2023/10/25 11:31:14;;;;;;;5.80;2.95;;;;;;;12.12;100.00;99223.47;5308220;28;20563;-73
2023/10/25 11:33:46;;;;;;;5.20;2.97;;;;;;;12.17;100.00;99227.19;5333631;27;20024;-72
2023/10/25 11:36:18;;;;;;;5.50;2.90;;;;;;;12.17;100.00;99221.94;5315190;27;20217;-72
2023/10/25 11:38:50;;;;;;;8.55;3.22;;;;;;;12.22;100.00;99218.78;5333803;27;20039;-73
2023/10/25 11:41:22;;;;;;;4.60;3.08;;;;;;;12.24;100.00;99219.41;5333225;27;20110;-72
2023/10/25 11:43:56;;;;;;;4.73;3.20;;;;;;;12.26;100.00;99212.16;5333173;27;20046;-72
2023/10/25 11:46:34;;;;;;;4.82;3.13;;;;;;;12.34;100.00;99206.81;5332041;27;20272;-72
2023/10/25 11:49:06;;;;;;;5.45;3.53;;;;;;;12.24;100.00;99201.03;5313290;28;20035;-72
2023/10/25 11:51:38;;;;;;;4.60;3.17;;;;;;;12.24;100.00;99203.66;5333711;27;20047;-73